sensor_id;sensor_type;location;lat;lon;timestamp;temperature;humidity
17986;DHT22;9118;48.122;11.546;2023-04-25T00:00:13;9.80;99.90
17986;DHT22;9118;48.122;11.546;2023-04-25T00:02:40;9.80;99.90
17986;DHT22;9118;48.122;11.546;2023-04-25T00:05:09;9.70;99.90
17986;DHT22;9118;48.122;11.546;2023-04-25T00:07:37;9.80;99.90
17986;DHT22;9118;48.122;11.546;2023-04-25T00:10:05;9.80;99.90
17986;DHT22;9118;48.122;11.546;2023-04-25T00:12:33;9.90;99.90
17986;DHT22;9118;48.122;11.546;2023-04-25T00:15:00;9.80;99.90
17986;DHT22;9118;48.122;11.546;2023-04-25T00:17:27;9.80;99.90
17986;DHT22;9118;48.122;11.546;2023-04-25T00:19:55;9.70;99.90
17986;DHT22;9118;48.122;11.546;2023-04-25T00:22:25;9.70;99.90
17986;DHT22;9118;48.122;11.546;2023-04-25T00:24:52;9.80;99.90
17986;DHT22;9118;48.122;11.546;2023-04-25T00:27:22;9.70;99.90
17986;DHT22;9118;48.122;11.546;2023-04-25T00:29:50;9.70;99.90
17986;DHT22;9118;48.122;11.546;2023-04-25T00:32:17;9.80;99.90
17986;DHT22;9118;48.122;11.546;2023-04-25T00:34:44;9.60;99.90
17986;DHT22;9118;48.122;11.546;2023-04-25T00:37:11;9.60;99.90
17986;DHT22;9118;48.122;11.546;2023-04-25T00:39:40;9.60;99.90
17986;DHT22;9118;48.122;11.546;2023-04-25T00:42:08;9.50;99.90
17986;DHT22;9118;48.122;11.546;2023-04-25T00:44:35;9.80;99.90
17986;DHT22;9118;48.122;11.546;2023-04-25T00:47:04;9.60;99.90
17986;DHT22;9118;48.122;11.546;2023-04-25T00:49:31;9.60;99.90
17986;DHT22;9118;48.122;11.546;2023-04-25T00:51:59;9.60;99.90
17986;DHT22;9118;48.122;11.546;2023-04-25T00:54:26;9.60;99.90
17986;DHT22;9118;48.122;11.546;2023-04-25T00:56:55;9.60;99.90
17986;DHT22;9118;48.122;11.546;2023-04-25T00:59:22;9.60;99.90
17986;DHT22;9118;48.122;11.546;2023-04-25T01:01:50;9.60;99.90
17986;DHT22;9118;48.122;11.546;2023-04-25T01:04:17;9.50;99.90
17986;DHT22;9118;48.122;11.546;2023-04-25T01:06:46;9.60;99.90
17986;DHT22;9118;48.122;11.546;2023-04-25T01:09:13;9.50;99.90
17986;DHT22;9118;48.122;11.546;2023-04-25T01:11:41;9.50;99.90
17986;DHT22;9118;48.122;11.546;2023-04-25T01:14:10;9.60;99.90
17986;DHT22;9118;48.122;11.546;2023-04-25T01:16:37;9.60;99.90
17986;DHT22;9118;48.122;11.546;2023-04-25T01:19:06;9.60;99.90
17986;DHT22;9118;48.122;11.546;2023-04-25T01:21:38;10.30;99.90
17986;DHT22;9118;48.122;11.546;2023-04-25T01:24:06;9.50;99.90
17986;DHT22;9118;48.122;11.546;2023-04-25T01:26:33;9.50;99.90
17986;DHT22;9118;48.122;11.546;2023-04-25T01:29:01;9.40;99.90
17986;DHT22;9118;48.122;11.546;2023-04-25T01:31:30;9.40;99.90
17986;DHT22;9118;48.122;11.546;2023-04-25T01:33:59;9.30;99.90
17986;DHT22;9118;48.122;11.546;2023-04-25T01:36:26;9.40;99.90
17986;DHT22;9118;48.122;11.546;2023-04-25T01:38:55;9.40;99.90
17986;DHT22;9118;48.122;11.546;2023-04-25T01:41:22;9.40;99.90
17986;DHT22;9118;48.122;11.546;2023-04-25T01:43:50;9.30;99.90
17986;DHT22;9118;48.122;11.546;2023-04-25T01:46:17;9.30;99.90
17986;DHT22;9118;48.122;11.546;2023-04-25T01:48:45;9.30;99.90
17986;DHT22;9118;48.122;11.546;2023-04-25T01:51:12;9.50;99.90
17986;DHT22;9118;48.122;11.546;2023-04-25T01:53:39;9.20;99.90
17986;DHT22;9118;48.122;11.546;2023-04-25T01:56:08;9.20;99.90
17986;DHT22;9118;48.122;11.546;2023-04-25T01:58:36;9.20;99.90
17986;DHT22;9118;48.122;11.546;2023-04-25T02:01:03;9.20;99.90
17986;DHT22;9118;48.122;11.546;2023-04-25T02:03:34;9.10;99.90
17986;DHT22;9118;48.122;11.546;2023-04-25T02:06:01;9.20;99.90
17986;DHT22;9118;48.122;11.546;2023-04-25T02:08:29;9.10;99.90
17986;DHT22;9118;48.122;11.546;2023-04-25T02:10:57;9.10;99.90
17986;DHT22;9118;48.122;11.546;2023-04-25T02:13:25;9.00;99.90
17986;DHT22;9118;48.122;11.546;2023-04-25T02:15:52;9.20;99.90
17986;DHT22;9118;48.122;11.546;2023-04-25T02:18:19;9.20;99.90
17986;DHT22;9118;48.122;11.546;2023-04-25T02:20:46;9.00;99.90
17986;DHT22;9118;48.122;11.546;2023-04-25T02:23:14;9.00;99.90
17986;DHT22;9118;48.122;11.546;2023-04-25T02:25:42;9.60;99.90
17986;DHT22;9118;48.122;11.546;2023-04-25T02:28:10;9.00;99.90
17986;DHT22;9118;48.122;11.546;2023-04-25T02:30:38;9.10;99.90
17986;DHT22;9118;48.122;11.546;2023-04-25T02:33:05;9.20;99.90
17986;DHT22;9118;48.122;11.546;2023-04-25T02:35:33;9.20;99.90
17986;DHT22;9118;48.122;11.546;2023-04-25T02:38:01;9.20;99.90
17986;DHT22;9118;48.122;11.546;2023-04-25T02:40:28;9.20;99.90
17986;DHT22;9118;48.122;11.546;2023-04-25T02:42:55;9.40;99.90
17986;DHT22;9118;48.122;11.546;2023-04-25T02:45:22;9.20;99.90
17986;DHT22;9118;48.122;11.546;2023-04-25T02:47:51;9.20;99.90
17986;DHT22;9118;48.122;11.546;2023-04-25T02:50:19;9.50;99.90
17986;DHT22;9118;48.122;11.546;2023-04-25T02:52:46;10.10;99.90
17986;DHT22;9118;48.122;11.546;2023-04-25T02:55:14;9.30;99.90
17986;DHT22;9118;48.122;11.546;2023-04-25T02:57:41;9.30;99.90
17986;DHT22;9118;48.122;11.546;2023-04-25T03:00:08;9.30;99.90
17986;DHT22;9118;48.122;11.546;2023-04-25T03:02:37;9.30;99.90
17986;DHT22;9118;48.122;11.546;2023-04-25T03:05:07;9.40;99.90
17986;DHT22;9118;48.122;11.546;2023-04-25T03:07:34;9.90;99.90
17986;DHT22;9118;48.122;11.546;2023-04-25T03:10:01;9.40;99.90
17986;DHT22;9118;48.122;11.546;2023-04-25T03:12:29;9.40;99.90
17986;DHT22;9118;48.122;11.546;2023-04-25T03:14:56;9.20;99.90
17986;DHT22;9118;48.122;11.546;2023-04-25T03:17:23;9.00;99.90
17986;DHT22;9118;48.122;11.546;2023-04-25T03:19:50;9.20;99.90
17986;DHT22;9118;48.122;11.546;2023-04-25T03:22:21;9.00;99.90
17986;DHT22;9118;48.122;11.546;2023-04-25T03:24:50;9.00;99.90
17986;DHT22;9118;48.122;11.546;2023-04-25T03:27:17;8.90;99.90
17986;DHT22;9118;48.122;11.546;2023-04-25T03:29:44;9.00;99.90
17986;DHT22;9118;48.122;11.546;2023-04-25T03:32:12;9.10;99.90
17986;DHT22;9118;48.122;11.546;2023-04-25T03:34:39;9.10;99.90
17986;DHT22;9118;48.122;11.546;2023-04-25T03:37:06;9.10;99.90
17986;DHT22;9118;48.122;11.546;2023-04-25T03:39:35;8.90;99.90
17986;DHT22;9118;48.122;11.546;2023-04-25T03:42:03;8.90;99.90
17986;DHT22;9118;48.122;11.546;2023-04-25T03:44:33;8.90;99.90
17986;DHT22;9118;48.122;11.546;2023-04-25T03:47:06;8.80;99.90
17986;DHT22;9118;48.122;11.546;2023-04-25T03:49:34;8.80;99.90
17986;DHT22;9118;48.122;11.546;2023-04-25T03:52:02;8.70;99.90
17986;DHT22;9118;48.122;11.546;2023-04-25T03:54:29;8.70;99.90
17986;DHT22;9118;48.122;11.546;2023-04-25T03:56:57;8.70;99.90
17986;DHT22;9118;48.122;11.546;2023-04-25T03:59:25;8.70;99.90
17986;DHT22;9118;48.122;11.546;2023-04-25T04:01:52;8.80;99.90
17986;DHT22;9118;48.122;11.546;2023-04-25T04:04:20;8.70;99.90
17986;DHT22;9118;48.122;11.546;2023-04-25T04:06:47;8.80;99.90
17986;DHT22;9118;48.122;11.546;2023-04-25T04:09:18;8.80;99.90
17986;DHT22;9118;48.122;11.546;2023-04-25T04:11:46;9.60;99.90
17986;DHT22;9118;48.122;11.546;2023-04-25T04:14:14;8.80;99.90
17986;DHT22;9118;48.122;11.546;2023-04-25T04:16:42;8.70;99.90
17986;DHT22;9118;48.122;11.546;2023-04-25T04:19:09;8.60;99.90
17986;DHT22;9118;48.122;11.546;2023-04-25T04:21:36;9.30;99.90
17986;DHT22;9118;48.122;11.546;2023-04-25T04:24:03;8.50;99.90
17986;DHT22;9118;48.122;11.546;2023-04-25T04:26:32;8.60;99.90
17986;DHT22;9118;48.122;11.546;2023-04-25T04:29:00;8.60;99.90
17986;DHT22;9118;48.122;11.546;2023-04-25T04:31:28;8.50;99.90
17986;DHT22;9118;48.122;11.546;2023-04-25T04:33:55;8.60;99.90
17986;DHT22;9118;48.122;11.546;2023-04-25T04:36:22;8.60;99.90
17986;DHT22;9118;48.122;11.546;2023-04-25T04:38:52;8.60;99.90
17986;DHT22;9118;48.122;11.546;2023-04-25T04:41:22;8.70;99.90
17986;DHT22;9118;48.122;11.546;2023-04-25T04:43:52;8.60;99.90
17986;DHT22;9118;48.122;11.546;2023-04-25T04:46:22;8.60;99.90
17986;DHT22;9118;48.122;11.546;2023-04-25T04:48:51;7.30;99.90
17986;DHT22;9118;48.122;11.546;2023-04-25T04:51:19;8.80;99.90
17986;DHT22;9118;48.122;11.546;2023-04-25T04:53:46;8.80;99.90
17986;DHT22;9118;48.122;11.546;2023-04-25T04:56:13;8.90;99.90
17986;DHT22;9118;48.122;11.546;2023-04-25T04:58:41;8.90;99.90
17986;DHT22;9118;48.122;11.546;2023-04-25T05:01:08;9.00;99.90
17986;DHT22;9118;48.122;11.546;2023-04-25T05:03:35;9.00;99.90
17986;DHT22;9118;48.122;11.546;2023-04-25T05:06:04;9.00;99.90
17986;DHT22;9118;48.122;11.546;2023-04-25T05:08:32;9.00;99.90
17986;DHT22;9118;48.122;11.546;2023-04-25T05:10:59;8.70;99.90
17986;DHT22;9118;48.122;11.546;2023-04-25T05:13:26;8.80;99.90
17986;DHT22;9118;48.122;11.546;2023-04-25T05:15:56;8.70;99.90
17986;DHT22;9118;48.122;11.546;2023-04-25T05:18:24;9.10;99.90
17986;DHT22;9118;48.122;11.546;2023-04-25T05:20:52;8.90;99.90
17986;DHT22;9118;48.122;11.546;2023-04-25T05:23:23;9.00;99.90
17986;DHT22;9118;48.122;11.546;2023-04-25T05:25:50;9.10;99.90
17986;DHT22;9118;48.122;11.546;2023-04-25T05:28:17;9.10;99.90
17986;DHT22;9118;48.122;11.546;2023-04-25T05:30:46;9.10;99.90
17986;DHT22;9118;48.122;11.546;2023-04-25T05:33:13;9.10;99.90
17986;DHT22;9118;48.122;11.546;2023-04-25T05:35:41;9.00;99.90
17986;DHT22;9118;48.122;11.546;2023-04-25T05:38:08;8.90;99.90
17986;DHT22;9118;48.122;11.546;2023-04-25T05:40:37;8.80;99.90
17986;DHT22;9118;48.122;11.546;2023-04-25T05:43:04;8.80;99.90
17986;DHT22;9118;48.122;11.546;2023-04-25T05:45:31;8.80;99.90
17986;DHT22;9118;48.122;11.546;2023-04-25T05:48:00;8.80;99.90
17986;DHT22;9118;48.122;11.546;2023-04-25T05:50:27;8.80;99.90
17986;DHT22;9118;48.122;11.546;2023-04-25T05:52:54;8.80;99.90
17986;DHT22;9118;48.122;11.546;2023-04-25T05:55:23;8.60;99.90
17986;DHT22;9118;48.122;11.546;2023-04-25T05:57:51;8.50;99.90
17986;DHT22;9118;48.122;11.546;2023-04-25T06:00:20;8.10;99.90
17986;DHT22;9118;48.122;11.546;2023-04-25T06:02:48;9.30;99.90
17986;DHT22;9118;48.122;11.546;2023-04-25T06:05:15;7.70;99.90
17986;DHT22;9118;48.122;11.546;2023-04-25T06:07:43;7.40;99.90
17986;DHT22;9118;48.122;11.546;2023-04-25T06:10:10;7.20;99.90
17986;DHT22;9118;48.122;11.546;2023-04-25T06:12:38;7.00;99.90
17986;DHT22;9118;48.122;11.546;2023-04-25T06:15:08;7.00;99.90
17986;DHT22;9118;48.122;11.546;2023-04-25T06:17:36;7.30;99.90
17986;DHT22;9118;48.122;11.546;2023-04-25T06:20:03;7.30;99.90
17986;DHT22;9118;48.122;11.546;2023-04-25T06:22:33;7.10;99.90
17986;DHT22;9118;48.122;11.546;2023-04-25T06:25:00;7.10;99.90
17986;DHT22;9118;48.122;11.546;2023-04-25T06:27:30;8.60;99.90
17986;DHT22;9118;48.122;11.546;2023-04-25T06:29:57;7.30;99.90
17986;DHT22;9118;48.122;11.546;2023-04-25T06:32:25;7.40;99.90
17986;DHT22;9118;48.122;11.546;2023-04-25T06:34:54;7.50;99.90
17986;DHT22;9118;48.122;11.546;2023-04-25T06:37:21;7.80;99.90
17986;DHT22;9118;48.122;11.546;2023-04-25T06:39:48;8.00;99.90
17986;DHT22;9118;48.122;11.546;2023-04-25T06:42:15;8.20;99.90
17986;DHT22;9118;48.122;11.546;2023-04-25T06:44:42;8.30;99.90
17986;DHT22;9118;48.122;11.546;2023-04-25T06:47:09;8.40;99.90
17986;DHT22;9118;48.122;11.546;2023-04-25T06:49:37;8.40;99.90
17986;DHT22;9118;48.122;11.546;2023-04-25T06:52:05;8.50;99.90
17986;DHT22;9118;48.122;11.546;2023-04-25T06:54:32;8.50;99.90
17986;DHT22;9118;48.122;11.546;2023-04-25T06:56:59;8.70;99.90
17986;DHT22;9118;48.122;11.546;2023-04-25T06:59:27;8.70;99.90
17986;DHT22;9118;48.122;11.546;2023-04-25T07:01:54;8.90;99.90
17986;DHT22;9118;48.122;11.546;2023-04-25T07:04:37;8.90;99.90
17986;DHT22;9118;48.122;11.546;2023-04-25T07:07:05;9.30;99.90
17986;DHT22;9118;48.122;11.546;2023-04-25T07:09:32;10.50;99.90
17986;DHT22;9118;48.122;11.546;2023-04-25T07:12:00;9.20;99.90
17986;DHT22;9118;48.122;11.546;2023-04-25T07:14:35;9.20;99.90
17986;DHT22;9118;48.122;11.546;2023-04-25T07:17:03;9.30;99.90
17986;DHT22;9118;48.122;11.546;2023-04-25T07:19:32;9.20;99.90
17986;DHT22;9118;48.122;11.546;2023-04-25T07:21:59;9.30;99.90
17986;DHT22;9118;48.122;11.546;2023-04-25T07:24:28;9.50;99.90
17986;DHT22;9118;48.122;11.546;2023-04-25T07:26:55;9.60;99.90
17986;DHT22;9118;48.122;11.546;2023-04-25T07:29:23;9.60;99.90
17986;DHT22;9118;48.122;11.546;2023-04-25T07:31:50;9.30;99.90
17986;DHT22;9118;48.122;11.546;2023-04-25T07:34:18;9.20;99.90
17986;DHT22;9118;48.122;11.546;2023-04-25T07:40:10;9.40;99.90
17986;DHT22;9118;48.122;11.546;2023-04-25T07:42:38;9.20;99.90
17986;DHT22;9118;48.122;11.546;2023-04-25T07:45:06;9.40;99.90
17986;DHT22;9118;48.122;11.546;2023-04-25T07:47:34;9.10;99.90
17986;DHT22;9118;48.122;11.546;2023-04-25T07:50:02;9.40;99.90
17986;DHT22;9118;48.122;11.546;2023-04-25T07:52:30;9.50;99.90
17986;DHT22;9118;48.122;11.546;2023-04-25T07:54:57;9.10;99.90
17986;DHT22;9118;48.122;11.546;2023-04-25T07:57:27;9.60;99.90
17986;DHT22;9118;48.122;11.546;2023-04-25T07:59:54;9.70;99.90
17986;DHT22;9118;48.122;11.546;2023-04-25T08:02:21;9.90;99.90
17986;DHT22;9118;48.122;11.546;2023-04-25T08:04:48;9.80;99.90
17986;DHT22;9118;48.122;11.546;2023-04-25T08:07:16;9.90;99.90
17986;DHT22;9118;48.122;11.546;2023-04-25T08:09:43;9.70;99.90
17986;DHT22;9118;48.122;11.546;2023-04-25T08:12:10;9.60;99.90
17986;DHT22;9118;48.122;11.546;2023-04-25T08:14:40;9.70;99.90
17986;DHT22;9118;48.122;11.546;2023-04-25T08:17:07;9.80;99.90
17986;DHT22;9118;48.122;11.546;2023-04-25T08:19:34;10.00;99.90
17986;DHT22;9118;48.122;11.546;2023-04-25T08:22:03;10.20;99.90
17986;DHT22;9118;48.122;11.546;2023-04-25T08:24:30;10.20;99.90
17986;DHT22;9118;48.122;11.546;2023-04-25T08:26:57;10.20;99.90
17986;DHT22;9118;48.122;11.546;2023-04-25T08:29:24;10.20;99.90
17986;DHT22;9118;48.122;11.546;2023-04-25T08:31:53;10.10;99.90
17986;DHT22;9118;48.122;11.546;2023-04-25T08:34:20;11.30;99.90
17986;DHT22;9118;48.122;11.546;2023-04-25T08:36:47;9.90;99.90
17986;DHT22;9118;48.122;11.546;2023-04-25T08:39:19;9.70;99.90
17986;DHT22;9118;48.122;11.546;2023-04-25T08:41:46;10.20;99.90
17986;DHT22;9118;48.122;11.546;2023-04-25T08:44:15;9.80;99.90
17986;DHT22;9118;48.122;11.546;2023-04-25T08:46:45;9.80;99.90
17986;DHT22;9118;48.122;11.546;2023-04-25T08:49:26;9.80;99.90
17986;DHT22;9118;48.122;11.546;2023-04-25T08:51:59;10.10;99.90
17986;DHT22;9118;48.122;11.546;2023-04-25T08:54:30;10.00;99.90
17986;DHT22;9118;48.122;11.546;2023-04-25T08:57:00;10.20;99.90
17986;DHT22;9118;48.122;11.546;2023-04-25T08:59:30;10.50;99.90
17986;DHT22;9118;48.122;11.546;2023-04-25T09:01:57;10.90;99.90
17986;DHT22;9118;48.122;11.546;2023-04-25T09:04:30;10.70;99.90
17986;DHT22;9118;48.122;11.546;2023-04-25T09:06:57;10.60;99.90
17986;DHT22;9118;48.122;11.546;2023-04-25T09:09:25;10.90;99.90
17986;DHT22;9118;48.122;11.546;2023-04-25T09:11:54;10.50;99.90
17986;DHT22;9118;48.122;11.546;2023-04-25T09:14:23;10.60;99.90
17986;DHT22;9118;48.122;11.546;2023-04-25T09:16:58;10.70;99.90
17986;DHT22;9118;48.122;11.546;2023-04-25T09:19:28;11.10;99.90
17986;DHT22;9118;48.122;11.546;2023-04-25T09:21:57;11.40;99.90
17986;DHT22;9118;48.122;11.546;2023-04-25T09:24:37;11.40;99.90
17986;DHT22;9118;48.122;11.546;2023-04-25T09:27:20;11.70;99.90
17986;DHT22;9118;48.122;11.546;2023-04-25T09:30:05;11.50;99.90
17986;DHT22;9118;48.122;11.546;2023-04-25T09:32:32;10.60;99.90
17986;DHT22;9118;48.122;11.546;2023-04-25T09:35:03;11.70;99.90
17986;DHT22;9118;48.122;11.546;2023-04-25T09:37:32;10.20;99.90
17986;DHT22;9118;48.122;11.546;2023-04-25T09:40:04;11.40;99.90
17986;DHT22;9118;48.122;11.546;2023-04-25T09:42:47;11.00;99.90
17986;DHT22;9118;48.122;11.546;2023-04-25T09:45:23;11.60;99.90
17986;DHT22;9118;48.122;11.546;2023-04-25T09:51:40;11.40;99.90
17986;DHT22;9118;48.122;11.546;2023-04-25T09:54:10;12.20;99.90
17986;DHT22;9118;48.122;11.546;2023-04-25T09:56:38;11.60;99.90
17986;DHT22;9118;48.122;11.546;2023-04-25T09:59:14;11.50;99.90
17986;DHT22;9118;48.122;11.546;2023-04-25T10:01:43;11.50;99.90
17986;DHT22;9118;48.122;11.546;2023-04-25T10:04:11;11.40;99.90
17986;DHT22;9118;48.122;11.546;2023-04-25T10:06:42;11.50;99.90
17986;DHT22;9118;48.122;11.546;2023-04-25T10:09:11;11.40;99.90
17986;DHT22;9118;48.122;11.546;2023-04-25T10:11:38;11.40;99.90
17986;DHT22;9118;48.122;11.546;2023-04-25T10:14:06;11.30;99.90
17986;DHT22;9118;48.122;11.546;2023-04-25T10:16:36;11.20;99.90
17986;DHT22;9118;48.122;11.546;2023-04-25T10:19:05;11.60;99.90
17986;DHT22;9118;48.122;11.546;2023-04-25T10:21:32;11.90;99.90
17986;DHT22;9118;48.122;11.546;2023-04-25T10:24:04;12.20;99.90
17986;DHT22;9118;48.122;11.546;2023-04-25T10:26:32;12.30;99.90
17986;DHT22;9118;48.122;11.546;2023-04-25T10:29:00;12.30;99.90
17986;DHT22;9118;48.122;11.546;2023-04-25T10:31:30;12.40;99.90
17986;DHT22;9118;48.122;11.546;2023-04-25T10:33:57;12.00;99.90
17986;DHT22;9118;48.122;11.546;2023-04-25T10:36:39;11.90;99.90
17986;DHT22;9118;48.122;11.546;2023-04-25T10:39:12;11.70;99.90
17986;DHT22;9118;48.122;11.546;2023-04-25T10:41:55;10.20;99.90
17986;DHT22;9118;48.122;11.546;2023-04-25T10:44:22;9.70;99.90
17986;DHT22;9118;48.122;11.546;2023-04-25T10:46:50;9.70;99.90
17986;DHT22;9118;48.122;11.546;2023-04-25T10:49:33;9.50;99.90
17986;DHT22;9118;48.122;11.546;2023-04-25T10:52:15;9.50;99.90
17986;DHT22;9118;48.122;11.546;2023-04-25T10:54:46;9.70;99.90
17986;DHT22;9118;48.122;11.546;2023-04-25T10:57:40;9.90;99.90
17986;DHT22;9118;48.122;11.546;2023-04-25T11:00:12;10.10;99.90
17986;DHT22;9118;48.122;11.546;2023-04-25T11:02:45;10.20;99.90
17986;DHT22;9118;48.122;11.546;2023-04-25T11:05:23;9.90;99.90
17986;DHT22;9118;48.122;11.546;2023-04-25T11:07:55;10.00;99.90
17986;DHT22;9118;48.122;11.546;2023-04-25T11:10:27;10.10;99.90
17986;DHT22;9118;48.122;11.546;2023-04-25T11:12:55;10.00;99.90
17986;DHT22;9118;48.122;11.546;2023-04-25T11:15:22;10.10;99.90
17986;DHT22;9118;48.122;11.546;2023-04-25T11:17:51;10.20;99.90
17986;DHT22;9118;48.122;11.546;2023-04-25T11:20:19;10.50;99.90
17986;DHT22;9118;48.122;11.546;2023-04-25T11:22:48;10.50;99.90
17986;DHT22;9118;48.122;11.546;2023-04-25T11:25:16;10.50;99.90
17986;DHT22;9118;48.122;11.546;2023-04-25T11:27:54;10.80;99.90
17986;DHT22;9118;48.122;11.546;2023-04-25T11:30:24;10.40;99.90
17986;DHT22;9118;48.122;11.546;2023-04-25T11:32:51;10.20;99.90
17986;DHT22;9118;48.122;11.546;2023-04-25T11:35:22;10.70;99.90
17986;DHT22;9118;48.122;11.546;2023-04-25T11:37:51;11.60;99.90
17986;DHT22;9118;48.122;11.546;2023-04-25T11:40:18;10.50;99.90
17986;DHT22;9118;48.122;11.546;2023-04-25T11:42:46;10.80;99.90
17986;DHT22;9118;48.122;11.546;2023-04-25T11:45:15;11.00;99.90
17986;DHT22;9118;48.122;11.546;2023-04-25T11:47:44;10.70;99.90
17986;DHT22;9118;48.122;11.546;2023-04-25T11:50:16;10.60;99.90
17986;DHT22;9118;48.122;11.546;2023-04-25T11:52:44;10.70;99.90
17986;DHT22;9118;48.122;11.546;2023-04-25T11:55:16;11.00;99.90
17986;DHT22;9118;48.122;11.546;2023-04-25T11:57:45;11.00;99.90
17986;DHT22;9118;48.122;11.546;2023-04-25T12:00:17;10.80;99.90
17986;DHT22;9118;48.122;11.546;2023-04-25T12:02:51;10.80;99.90
17986;DHT22;9118;48.122;11.546;2023-04-25T12:05:20;11.30;99.90
17986;DHT22;9118;48.122;11.546;2023-04-25T12:07:54;11.20;99.90
17986;DHT22;9118;48.122;11.546;2023-04-25T12:10:22;9.20;99.90
17986;DHT22;9118;48.122;11.546;2023-04-25T12:12:51;10.30;99.90
17986;DHT22;9118;48.122;11.546;2023-04-25T12:15:25;9.80;99.90
17986;DHT22;9118;48.122;11.546;2023-04-25T12:17:53;9.70;99.90
17986;DHT22;9118;48.122;11.546;2023-04-25T12:20:24;9.80;99.90
17986;DHT22;9118;48.122;11.546;2023-04-25T12:22:52;9.20;99.90
17986;DHT22;9118;48.122;11.546;2023-04-25T12:25:35;11.40;99.90
17986;DHT22;9118;48.122;11.546;2023-04-25T12:28:12;11.10;99.90
17986;DHT22;9118;48.122;11.546;2023-04-25T12:30:55;9.70;99.90
17986;DHT22;9118;48.122;11.546;2023-04-25T12:33:23;9.40;99.90
17986;DHT22;9118;48.122;11.546;2023-04-25T12:35:51;8.20;99.90
17986;DHT22;9118;48.122;11.546;2023-04-25T12:38:22;9.50;99.90
17986;DHT22;9118;48.122;11.546;2023-04-25T12:40:50;9.80;99.90
17986;DHT22;9118;48.122;11.546;2023-04-25T12:43:18;9.70;99.90
17986;DHT22;9118;48.122;11.546;2023-04-25T12:45:51;9.60;99.90
17986;DHT22;9118;48.122;11.546;2023-04-25T12:48:21;10.00;99.90
17986;DHT22;9118;48.122;11.546;2023-04-25T12:50:50;10.10;99.90
17986;DHT22;9118;48.122;11.546;2023-04-25T12:53:18;9.60;99.90
17986;DHT22;9118;48.122;11.546;2023-04-25T12:55:46;10.50;99.90
17986;DHT22;9118;48.122;11.546;2023-04-25T12:58:13;9.40;99.90
17986;DHT22;9118;48.122;11.546;2023-04-25T13:00:41;9.70;99.90
17986;DHT22;9118;48.122;11.546;2023-04-25T13:03:09;10.20;99.90
17986;DHT22;9118;48.122;11.546;2023-04-25T13:05:40;9.40;99.90
17986;DHT22;9118;48.122;11.546;2023-04-25T13:08:07;8.80;99.90
17986;DHT22;9118;48.122;11.546;2023-04-25T13:10:35;9.30;99.90
17986;DHT22;9118;48.122;11.546;2023-04-25T13:13:04;8.00;99.90
17986;DHT22;9118;48.122;11.546;2023-04-25T13:15:32;9.30;99.90
17986;DHT22;9118;48.122;11.546;2023-04-25T13:17:59;9.30;99.90
17986;DHT22;9118;48.122;11.546;2023-04-25T13:20:35;9.80;99.90
17986;DHT22;9118;48.122;11.546;2023-04-25T13:23:04;8.80;99.90
17986;DHT22;9118;48.122;11.546;2023-04-25T13:25:32;8.70;99.90
17986;DHT22;9118;48.122;11.546;2023-04-25T13:27:59;7.60;99.90
17986;DHT22;9118;48.122;11.546;2023-04-25T13:30:26;9.10;99.90
17986;DHT22;9118;48.122;11.546;2023-04-25T13:32:54;8.50;99.90
17986;DHT22;9118;48.122;11.546;2023-04-25T13:35:23;8.30;99.90
17986;DHT22;9118;48.122;11.546;2023-04-25T13:37:50;8.20;99.90
17986;DHT22;9118;48.122;11.546;2023-04-25T13:40:19;8.30;99.90
17986;DHT22;9118;48.122;11.546;2023-04-25T13:42:46;8.50;99.90
17986;DHT22;9118;48.122;11.546;2023-04-25T13:45:13;8.30;99.90
17986;DHT22;9118;48.122;11.546;2023-04-25T13:47:41;7.90;99.90
17986;DHT22;9118;48.122;11.546;2023-04-25T13:50:09;8.00;99.90
17986;DHT22;9118;48.122;11.546;2023-04-25T13:52:37;8.00;99.90
17986;DHT22;9118;48.122;11.546;2023-04-25T13:55:06;8.00;99.90
17986;DHT22;9118;48.122;11.546;2023-04-25T13:57:36;8.20;99.90
17986;DHT22;9118;48.122;11.546;2023-04-25T14:00:05;8.20;99.90
17986;DHT22;9118;48.122;11.546;2023-04-25T14:02:34;8.00;99.90
17986;DHT22;9118;48.122;11.546;2023-04-25T14:05:01;8.00;99.90
17986;DHT22;9118;48.122;11.546;2023-04-25T14:07:29;8.00;99.90
17986;DHT22;9118;48.122;11.546;2023-04-25T14:09:56;8.20;99.90
17986;DHT22;9118;48.122;11.546;2023-04-25T14:12:24;8.30;99.90
17986;DHT22;9118;48.122;11.546;2023-04-25T14:14:54;8.40;99.90
17986;DHT22;9118;48.122;11.546;2023-04-25T14:17:24;8.20;99.90
17986;DHT22;9118;48.122;11.546;2023-04-25T14:19:52;8.10;99.90
17986;DHT22;9118;48.122;11.546;2023-04-25T14:22:19;8.20;99.90
17986;DHT22;9118;48.122;11.546;2023-04-25T14:24:46;8.30;99.90
17986;DHT22;9118;48.122;11.546;2023-04-25T14:27:13;8.30;99.90
17986;DHT22;9118;48.122;11.546;2023-04-25T14:29:40;8.20;99.90
17986;DHT22;9118;48.122;11.546;2023-04-25T14:32:12;8.60;99.90
17986;DHT22;9118;48.122;11.546;2023-04-25T14:34:39;9.10;99.90
17986;DHT22;9118;48.122;11.546;2023-04-25T14:37:25;9.80;99.90
17986;DHT22;9118;48.122;11.546;2023-04-25T14:39:55;9.60;99.90
17986;DHT22;9118;48.122;11.546;2023-04-25T14:42:22;9.60;99.90
17986;DHT22;9118;48.122;11.546;2023-04-25T14:44:49;9.80;99.90
17986;DHT22;9118;48.122;11.546;2023-04-25T14:47:18;9.90;99.90
17986;DHT22;9118;48.122;11.546;2023-04-25T14:52:29;9.90;99.90
17986;DHT22;9118;48.122;11.546;2023-04-25T14:55:09;10.00;99.90
17986;DHT22;9118;48.122;11.546;2023-04-25T14:57:36;9.50;99.90
17986;DHT22;9118;48.122;11.546;2023-04-25T15:00:05;9.40;99.90
17986;DHT22;9118;48.122;11.546;2023-04-25T15:02:37;9.20;99.90
17986;DHT22;9118;48.122;11.546;2023-04-25T15:05:05;9.20;99.90
17986;DHT22;9118;48.122;11.546;2023-04-25T15:07:32;9.30;99.90
17986;DHT22;9118;48.122;11.546;2023-04-25T15:10:00;9.70;99.90
17986;DHT22;9118;48.122;11.546;2023-04-25T15:12:28;10.10;99.90
17986;DHT22;9118;48.122;11.546;2023-04-25T15:14:55;10.20;99.90
17986;DHT22;9118;48.122;11.546;2023-04-25T15:17:23;10.10;99.90
17986;DHT22;9118;48.122;11.546;2023-04-25T15:19:52;9.90;99.90
17986;DHT22;9118;48.122;11.546;2023-04-25T15:22:30;9.70;99.90
17986;DHT22;9118;48.122;11.546;2023-04-25T15:24:58;9.30;99.90
17986;DHT22;9118;48.122;11.546;2023-04-25T15:27:28;9.60;99.90
17986;DHT22;9118;48.122;11.546;2023-04-25T15:29:59;11.10;99.90
17986;DHT22;9118;48.122;11.546;2023-04-25T15:32:31;10.50;99.90
17986;DHT22;9118;48.122;11.546;2023-04-25T15:35:02;10.60;99.90
17986;DHT22;9118;48.122;11.546;2023-04-25T15:37:30;11.10;99.90
17986;DHT22;9118;48.122;11.546;2023-04-25T15:40:03;11.80;99.90
17986;DHT22;9118;48.122;11.546;2023-04-25T15:42:34;12.20;99.90
17986;DHT22;9118;48.122;11.546;2023-04-25T15:45:03;11.90;99.90
17986;DHT22;9118;48.122;11.546;2023-04-25T15:47:31;10.80;99.90
17986;DHT22;9118;48.122;11.546;2023-04-25T15:50:00;10.80;99.90
17986;DHT22;9118;48.122;11.546;2023-04-25T15:52:29;10.60;99.90
17986;DHT22;9118;48.122;11.546;2023-04-25T15:54:57;10.30;99.90
17986;DHT22;9118;48.122;11.546;2023-04-25T15:57:24;10.00;99.90
17986;DHT22;9118;48.122;11.546;2023-04-25T15:59:51;9.90;99.90
17986;DHT22;9118;48.122;11.546;2023-04-25T16:02:18;9.10;99.90